Pagrindinis puslapis
METAR-TAF:

METAR-TAF

Oro uostai :

Lavan Island, Iranas

platuma: 26-48-37N, ilguma: 53-21-22E, Aukštis: 23 m

Dabartinis oras

Ataskaita buvo paskelbta 46 minutes, ne 07:00 UTC
Ramus vėjas
Temperatūra 30°C
Drėgmė 59%
Slėgis 1012 hPa
Matomumas: 7000 m

METAR: OIBV 210700Z 00000KT 7000 NSC 30/21 Q1012

Laikas: 11:16 (07:46 UTC)


TAF: trūkstamas

Orai ataskaitas ir orų prognozės (METAR, TAF).

turimą stotys yra geltonos ir raudonos taškus žemėlapyje.

Perkelti pele per norėdami pamatyti stoties vardą.

Tada spustelėkite, norėdami matyti oro stebėjimo ir prognozės.

Norėdami pakeisti žemėlapį: spustelėkite ant žalios mygtukų su juodo kryžiaus žemyn,; žalią mygtuką su brūkšneliu, jei norite nutolinti; arba žalių rodyklių gretimoms žemėlapius.


METAR-TAF: